Time;durP1;ratioP1;P1;durP2;ratioP2;P2;SDS_P1;SDS_P2;PMS_P1;PMS_P2;Temp;Humidity;BMP_temperature;BMP_pressure;BME280_temperature;BME280_humidity;BME280_pressure;Samples;Min_cycle;Max_cycle;Signal;HPM_P1;HPM_P2
2022/04/09 00:00:16;;;;;;;14.18;3.72;;;;;;;4.41;100.00;100355.41;5300578;28;20102;-70
2022/04/09 00:02:47;;;;;;;14.55;2.92;;;;;;;4.39;100.00;100354.66;5300617;28;20492;-71
2022/04/09 00:05:19;;;;;;;13.05;3.55;;;;;;;4.36;100.00;100354.88;5296229;28;20023;-71
2022/04/09 00:07:50;;;;;;;15.25;4.03;;;;;;;4.26;100.00;100348.66;5297245;28;20031;-71
2022/04/09 00:10:22;;;;;;;13.38;3.40;;;;;;;4.37;100.00;100370.34;5297728;28;20450;-70
2022/04/09 00:12:53;;;;;;;13.45;3.22;;;;;;;4.37;100.00;100375.53;5300664;28;20084;-70
2022/04/09 00:15:24;;;;;;;17.38;3.10;;;;;;;4.30;100.00;100373.44;5297638;28;20032;-70
2022/04/09 00:17:55;;;;;;;16.27;4.38;;;;;;;4.31;100.00;100381.09;5300022;28;20156;-70
2022/04/09 00:20:27;;;;;;;14.60;3.17;;;;;;;4.31;100.00;100394.06;5294533;28;20047;-70
2022/04/09 00:22:58;;;;;;;9.55;2.95;;;;;;;4.29;100.00;100393.34;5299954;28;20345;-70
2022/04/09 00:25:29;;;;;;;17.85;3.88;;;;;;;4.28;100.00;100394.28;5302399;28;20400;-70
2022/04/09 00:28:00;;;;;;;13.07;2.97;;;;;;;4.28;100.00;100398.63;5300031;28;20028;-70
2022/04/09 00:30:32;;;;;;;12.57;3.22;;;;;;;4.24;100.00;100400.59;5299552;28;20039;-70
2022/04/09 00:33:04;;;;;;;16.15;4.63;;;;;;;4.27;100.00;100408.16;5298065;28;20015;-70
2022/04/09 00:35:35;;;;;;;15.80;3.40;;;;;;;4.28;100.00;100414.19;5299957;28;20023;-70
2022/04/09 00:38:06;;;;;;;16.80;3.78;;;;;;;4.26;100.00;100408.28;5295365;28;20023;-70
2022/04/09 00:40:38;;;;;;;17.73;4.40;;;;;;;4.30;100.00;100420.13;5297149;28;20020;-70
2022/04/09 00:43:09;;;;;;;13.18;3.05;;;;;;;4.25;100.00;100427.38;5299158;28;20027;-70
2022/04/09 00:45:40;;;;;;;16.77;3.88;;;;;;;4.26;100.00;100429.03;5296297;28;20388;-70
2022/04/09 00:48:11;;;;;;;16.25;3.55;;;;;;;4.23;100.00;100429.22;5297858;28;20095;-70
2022/04/09 00:50:43;;;;;;;16.33;4.75;;;;;;;4.16;100.00;100426.19;5297273;28;20020;-70
2022/04/09 00:53:16;;;;;;;14.13;2.97;;;;;;;4.25;100.00;100432.56;5296925;28;20105;-70
2022/04/09 00:58:41;;;;;;;16.27;3.20;;;;;;;4.21;100.00;100450.06;5297437;28;20047;-70
2022/04/09 01:01:13;;;;;;;15.57;3.30;;;;;;;4.20;100.00;100452.75;5296306;28;20386;-70
2022/04/09 01:03:45;;;;;;;12.93;3.42;;;;;;;4.19;100.00;100456.28;5295758;28;20039;-70
2022/04/09 01:06:17;;;;;;;16.08;3.80;;;;;;;4.12;100.00;100456.66;5298166;28;20051;-70
2022/04/09 01:08:48;;;;;;;12.00;2.97;;;;;;;4.14;100.00;100472.13;5296797;28;20028;-70
2022/04/09 01:11:19;;;;;;;17.58;3.38;;;;;;;4.13;100.00;100471.31;5298043;28;20084;-70
2022/04/09 01:13:51;;;;;;;17.08;3.78;;;;;;;4.15;100.00;100478.97;5297931;28;20020;-70
2022/04/09 01:16:24;;;;;;;13.15;3.28;;;;;;;4.12;100.00;100480.00;5298596;28;20028;-70
2022/04/09 01:18:59;;;;;;;14.20;3.05;;;;;;;4.20;100.00;100483.88;5299200;28;20032;-70
2022/04/09 01:21:31;;;;;;;11.32;2.70;;;;;;;4.09;100.00;100492.31;5296833;28;20497;-70
2022/04/09 01:24:04;;;;;;;15.02;3.08;;;;;;;4.09;100.00;100494.91;5299624;28;20027;-71
2022/04/09 01:26:35;;;;;;;15.93;3.70;;;;;;;4.07;100.00;100502.78;5299420;28;20016;-71
2022/04/09 01:29:07;;;;;;;11.95;2.80;;;;;;;4.05;100.00;100506.41;5295818;28;20485;-70
2022/04/09 01:31:38;;;;;;;15.55;3.65;;;;;;;4.03;100.00;100511.69;5297834;28;20024;-70
2022/04/09 01:34:13;;;;;;;12.05;3.53;;;;;;;4.08;100.00;100514.00;5299873;28;20028;-70
2022/04/09 01:36:44;;;;;;;9.85;2.67;;;;;;;3.98;100.00;100513.75;5296721;28;20028;-71
2022/04/09 01:39:17;;;;;;;12.60;2.95;;;;;;;4.01;100.00;100516.13;5295801;28;20064;-70
2022/04/09 01:41:49;;;;;;;18.85;3.53;;;;;;;3.98;100.00;100523.25;5296927;28;20027;-70
2022/04/09 01:44:20;;;;;;;15.43;3.35;;;;;;;3.96;100.00;100520.78;5299750;28;20034;-70
2022/04/09 01:46:51;;;;;;;18.05;3.42;;;;;;;3.96;100.00;100533.75;5298676;28;20034;-70
2022/04/09 01:49:22;;;;;;;15.93;4.13;;;;;;;3.96;100.00;100531.16;5297880;28;20058;-70
2022/04/09 01:51:54;;;;;;;13.00;3.28;;;;;;;3.97;100.00;100543.16;5297868;28;20078;-70
2022/04/09 01:54:25;;;;;;;18.50;3.65;;;;;;;3.99;100.00;100550.88;5298645;28;20046;-70
2022/04/09 01:56:56;;;;;;;15.88;3.25;;;;;;;3.94;100.00;100552.91;5298533;28;20027;-70
2022/04/09 01:59:27;;;;;;;9.93;2.90;;;;;;;3.93;100.00;100553.81;5301777;28;20436;-70
2022/04/09 02:01:59;;;;;;;11.45;2.58;;;;;;;3.93;100.00;100556.41;5301096;28;20028;-70
2022/04/09 02:04:30;;;;;;;12.20;2.95;;;;;;;3.90;100.00;100562.63;5302862;28;20031;-70
2022/04/09 02:07:01;;;;;;;13.13;3.75;;;;;;;3.91;100.00;100559.13;5303438;28;20500;-68
2022/04/09 02:09:33;;;;;;;17.50;3.42;;;;;;;3.90;100.00;100560.88;5302603;28;20789;-68
2022/04/09 02:12:06;;;;;;;14.10;2.83;;;;;;;3.93;100.00;100566.78;5301791;28;20027;-70
2022/04/09 02:14:37;;;;;;;18.00;3.17;;;;;;;3.95;100.00;100576.16;5303251;28;20035;-70
2022/04/09 02:17:08;;;;;;;16.88;3.35;;;;;;;3.96;100.00;100576.97;5304530;28;20024;-71
2022/04/09 02:19:40;;;;;;;11.48;2.95;;;;;;;3.93;100.00;100577.97;5304030;28;20501;-70
2022/04/09 02:22:11;;;;;;;14.35;3.65;;;;;;;3.91;100.00;100585.03;5301576;28;20572;-70
2022/04/09 02:24:43;;;;;;;13.85;3.38;;;;;;;3.89;100.00;100594.66;5298657;28;20039;-70
2022/04/09 02:27:15;;;;;;;14.63;3.30;;;;;;;3.89;100.00;100598.06;5298515;28;20023;-70
2022/04/09 02:29:46;;;;;;;16.67;2.88;;;;;;;3.88;100.00;100601.59;5304743;28;20204;-70
2022/04/09 02:32:17;;;;;;;17.65;3.08;;;;;;;3.83;100.00;100595.88;5297589;28;20526;-70
2022/04/09 02:34:56;;;;;;;14.60;2.95;;;;;;;3.86;100.00;100608.66;5303152;28;20436;-71
2022/04/09 02:37:28;;;;;;;14.65;2.88;;;;;;;3.84;100.00;100602.72;5304179;28;20301;-70
2022/04/09 02:40:01;;;;;;;12.07;2.50;;;;;;;3.83;100.00;100614.00;5299767;28;20060;-70
2022/04/09 02:42:35;;;;;;;15.57;3.40;;;;;;;3.85;100.00;100606.97;5300687;28;20028;-70
2022/04/09 02:45:11;;;;;;;14.65;2.63;;;;;;;3.91;100.00;100621.31;5299383;27;20179;-69
2022/04/09 02:47:42;;;;;;;12.63;2.90;;;;;;;3.92;100.00;100622.16;5299851;28;20085;-69
2022/04/09 02:50:13;;;;;;;21.33;3.55;;;;;;;3.95;100.00;100630.56;5297974;28;20028;-70
2022/04/09 02:52:45;;;;;;;11.13;2.55;;;;;;;4.03;100.00;100622.31;5300756;28;20023;-70
2022/04/09 02:55:16;;;;;;;16.52;2.72;;;;;;;4.05;100.00;100626.50;5302142;28;20428;-70
2022/04/09 02:57:50;;;;;;;14.95;2.85;;;;;;;4.14;100.00;100641.47;5301376;28;20106;-70
2022/04/09 03:00:21;;;;;;;15.00;2.97;;;;;;;4.13;100.00;100641.59;5298314;28;20032;-70
2022/04/09 03:02:52;;;;;;;11.13;2.90;;;;;;;4.14;100.00;100648.44;5301632;28;20034;-70
2022/04/09 03:05:24;;;;;;;13.05;2.85;;;;;;;4.15;100.00;100650.91;5300321;28;20028;-70
2022/04/09 03:07:55;;;;;;;15.50;2.67;;;;;;;4.10;100.00;100655.56;5302328;28;20434;-70
2022/04/09 03:10:26;;;;;;;10.15;2.33;;;;;;;4.07;100.00;100658.34;5298611;28;20024;-69
2022/04/09 03:12:58;;;;;;;12.65;2.80;;;;;;;3.97;100.00;100646.84;5300134;28;20027;-68
2022/04/09 03:15:30;;;;;;;11.77;2.75;;;;;;;4.02;100.00;100662.97;5299504;28;20286;-68
2022/04/09 03:18:01;;;;;;;11.43;2.40;;;;;;;4.00;100.00;100661.38;5300487;28;20020;-69
2022/04/09 03:20:33;;;;;;;12.40;3.00;;;;;;;3.97;100.00;100670.19;5300182;28;20110;-69
2022/04/09 03:23:04;;;;;;;10.50;2.50;;;;;;;3.95;100.00;100669.44;5303241;28;20012;-69
2022/04/09 03:25:35;;;;;;;12.27;2.80;;;;;;;3.91;100.00;100670.56;5298902;28;20122;-69
2022/04/09 03:28:07;;;;;;;11.15;2.50;;;;;;;3.88;100.00;100675.91;5302370;28;20540;-69
2022/04/09 03:30:38;;;;;;;9.40;2.60;;;;;;;3.83;100.00;100676.19;5301536;28;20043;-69
2022/04/09 03:33:10;;;;;;;14.80;3.13;;;;;;;3.79;100.00;100687.69;5299864;28;20035;-69
2022/04/09 03:35:41;;;;;;;9.90;2.42;;;;;;;3.73;100.00;100685.44;5302105;28;20023;-69
2022/04/09 03:38:12;;;;;;;10.77;2.38;;;;;;;3.74;100.00;100696.63;5302944;28;20070;-69
2022/04/09 03:40:44;;;;;;;13.30;2.88;;;;;;;3.69;100.00;100693.47;5302549;28;20016;-69
2022/04/09 03:43:15;;;;;;;14.82;3.35;;;;;;;3.64;100.00;100693.75;5300044;28;20020;-68
2022/04/09 03:45:47;;;;;;;13.70;2.65;;;;;;;3.61;100.00;100692.16;5299063;28;20032;-69
2022/04/09 03:48:18;;;;;;;13.43;3.08;;;;;;;3.60;100.00;100706.06;5299547;28;20047;-68
2022/04/09 03:50:49;;;;;;;11.75;2.90;;;;;;;3.55;100.00;100697.69;5298375;28;20023;-69
2022/04/09 03:53:21;;;;;;;9.85;2.42;;;;;;;3.55;100.00;100702.88;5298163;28;20023;-69
2022/04/09 03:55:53;;;;;;;16.15;3.55;;;;;;;3.51;100.00;100710.91;5300316;28;20015;-69
2022/04/09 03:58:24;;;;;;;12.13;2.92;;;;;;;3.49;100.00;100712.78;5301872;28;20032;-68
2022/04/09 04:00:56;;;;;;;9.77;2.60;;;;;;;3.46;100.00;100720.72;5295611;28;20058;-68
2022/04/09 04:03:28;;;;;;;18.63;2.95;;;;;;;3.42;100.00;100722.63;5297078;28;20512;-69
2022/04/09 04:06:01;;;;;;;12.25;2.60;;;;;;;3.42;100.00;100728.66;5296663;28;20752;-69
2022/04/09 04:08:32;;;;;;;9.63;2.35;;;;;;;3.45;100.00;100737.16;5300026;28;20031;-68
2022/04/09 04:11:03;;;;;;;11.60;2.70;;;;;;;3.41;100.00;100733.94;5301902;28;20375;-68
2022/04/09 04:13:38;;;;;;;10.95;2.42;;;;;;;3.38;100.00;100734.94;5299230;28;20032;-68
2022/04/09 04:16:09;;;;;;;14.10;2.78;;;;;;;3.37;100.00;100741.03;5295508;28;20077;-68
2022/04/09 04:18:41;;;;;;;18.85;3.42;;;;;;;3.36;100.00;100739.34;5296299;28;20422;-69
2022/04/09 04:21:12;;;;;;;12.35;3.05;;;;;;;3.34;100.00;100756.75;5296251;28;20096;-69
2022/04/09 04:23:44;;;;;;;11.13;2.78;;;;;;;3.38;100.00;100758.22;5297379;28;20541;-68
2022/04/09 04:26:15;;;;;;;8.77;2.65;;;;;;;3.34;100.00;100761.91;5298528;28;20031;-68
2022/04/09 04:28:51;;;;;;;11.57;3.22;;;;;;;3.32;100.00;100757.72;5298594;28;20058;-68
2022/04/09 04:31:22;;;;;;;16.25;3.25;;;;;;;3.32;100.00;100763.75;5298286;28;20108;-68
2022/04/09 04:33:53;;;;;;;12.13;2.60;;;;;;;3.32;100.00;100768.91;5300307;28;20512;-68
2022/04/09 04:36:24;;;;;;;15.68;2.70;;;;;;;3.32;100.00;100768.09;5297583;28;20027;-68
2022/04/09 04:38:56;;;;;;;9.98;2.53;;;;;;;3.30;100.00;100770.78;5298138;28;20135;-68
2022/04/09 04:41:28;;;;;;;14.27;2.83;;;;;;;3.32;100.00;100776.69;5299219;28;20036;-68
2022/04/09 04:43:59;;;;;;;13.68;2.67;;;;;;;3.27;100.00;100778.72;5297531;28;20031;-68
2022/04/09 04:46:30;;;;;;;7.43;2.60;;;;;;;3.32;100.00;100775.88;5297343;28;20080;-68
2022/04/09 04:49:02;;;;;;;20.33;4.03;;;;;;;3.32;100.00;100787.06;5296710;28;20012;-68
2022/04/09 04:51:33;;;;;;;8.82;3.20;;;;;;;3.32;100.00;100794.81;5299325;28;20028;-68
2022/04/09 04:54:05;;;;;;;14.52;2.95;;;;;;;3.34;100.00;100797.34;5300091;28;20102;-68
2022/04/09 04:56:36;;;;;;;11.50;2.50;;;;;;;3.35;100.00;100807.59;5299048;28;20039;-70
2022/04/09 04:59:08;;;;;;;14.07;3.33;;;;;;;3.37;100.00;100803.19;5300376;28;20546;-68
2022/04/09 05:01:40;;;;;;;16.10;3.28;;;;;;;3.38;100.00;100804.00;5292693;28;20119;-68
2022/04/09 05:04:12;;;;;;;13.73;2.67;;;;;;;3.37;100.00;100810.94;5300485;28;20107;-68
2022/04/09 05:06:44;;;;;;;14.98;3.47;;;;;;;3.38;100.00;100814.38;5298895;28;20113;-68
2022/04/09 05:09:16;;;;;;;16.13;3.40;;;;;;;3.40;100.00;100817.69;5296985;28;20123;-68
2022/04/09 05:11:47;;;;;;;14.48;3.17;;;;;;;3.41;100.00;100824.56;5299066;28;20032;-68
2022/04/09 05:14:18;;;;;;;17.90;3.22;;;;;;;3.41;100.00;100830.59;5298545;28;20154;-68
2022/04/09 05:16:50;;;;;;;12.25;2.60;;;;;;;3.44;100.00;100828.72;5297957;28;20474;-68
2022/04/09 05:19:21;;;;;;;12.43;3.15;;;;;;;3.45;100.00;100841.59;5298708;28;20515;-68
2022/04/09 05:21:53;;;;;;;15.20;3.05;;;;;;;3.47;100.00;100844.94;5298910;28;20393;-68
2022/04/09 05:24:24;;;;;;;15.27;3.03;;;;;;;3.49;100.00;100850.88;5296178;28;20024;-68
2022/04/09 05:26:55;;;;;;;13.50;2.83;;;;;;;3.47;100.00;100844.94;5298462;28;20119;-68
2022/04/09 05:29:26;;;;;;;18.98;3.72;;;;;;;3.52;100.00;100855.84;5298784;28;20047;-68
2022/04/09 05:31:59;;;;;;;17.70;4.03;;;;;;;3.54;100.00;100863.56;5297728;28;20027;-68
2022/04/09 05:34:31;;;;;;;9.95;3.13;;;;;;;3.59;100.00;100864.97;5300220;28;20031;-68
2022/04/09 05:37:02;;;;;;;13.43;3.10;;;;;;;3.63;100.00;100873.41;5302699;28;20038;-67
2022/04/09 05:39:34;;;;;;;17.35;3.00;;;;;;;3.64;100.00;100868.16;5299780;28;20514;-68
2022/04/09 05:42:06;;;;;;;16.90;3.35;;;;;;;3.68;100.00;100878.34;5297200;28;20028;-68
2022/04/09 05:44:37;;;;;;;22.95;4.63;;;;;;;3.72;100.00;100880.69;5292178;28;20039;-68
2022/04/09 05:47:09;;;;;;;11.60;3.05;;;;;;;3.80;100.00;100890.63;5301708;28;20468;-68
2022/04/09 05:49:40;;;;;;;19.38;3.50;;;;;;;3.86;100.00;100898.03;5295011;28;20593;-68
2022/04/09 05:52:11;;;;;;;16.13;3.28;;;;;;;3.90;100.00;100899.53;5297369;28;20051;-68
2022/04/09 05:54:43;;;;;;;13.73;3.30;;;;;;;3.97;100.00;100898.28;5300445;28;20407;-68
2022/04/09 05:57:14;;;;;;;21.67;4.93;;;;;;;4.05;100.00;100906.47;5299693;28;20134;-68
2022/04/09 05:59:45;;;;;;;16.30;3.85;;;;;;;4.09;100.00;100900.19;5300214;28;20338;-68
2022/04/09 06:02:17;;;;;;;13.65;3.10;;;;;;;4.16;100.00;100903.25;5291919;28;20024;-67
2022/04/09 06:04:48;;;;;;;12.52;3.33;;;;;;;4.23;100.00;100911.53;5293402;28;20433;-67
2022/04/09 06:07:19;;;;;;;10.15;2.58;;;;;;;4.28;100.00;100914.69;5302928;28;20070;-68
2022/04/09 06:09:52;;;;;;;16.80;3.70;;;;;;;4.34;100.00;100914.34;5301419;28;20088;-66
2022/04/09 06:12:23;;;;;;;12.48;3.20;;;;;;;4.37;100.00;100919.34;5300416;28;20032;-68
2022/04/09 06:14:54;;;;;;;18.08;3.75;;;;;;;4.39;100.00;100922.66;5297931;28;20024;-68
2022/04/09 06:17:26;;;;;;;17.30;3.83;;;;;;;4.50;100.00;100922.06;5296903;28;20038;-66
2022/04/09 06:19:57;;;;;;;15.65;3.05;;;;;;;4.48;100.00;100916.97;5297690;28;20137;-67
2022/04/09 06:22:28;;;;;;;14.38;3.35;;;;;;;4.62;100.00;100942.97;5299984;28;20559;-68
2022/04/09 06:25:00;;;;;;;12.57;3.00;;;;;;;4.71;100.00;100943.34;5302418;28;20274;-68
2022/04/09 06:27:35;;;;;;;10.38;3.20;;;;;;;4.81;100.00;100944.44;5298286;28;20072;-67
2022/04/09 06:30:07;;;;;;;16.02;4.32;;;;;;;4.86;100.00;100939.84;5297984;28;20425;-68
2022/04/09 06:32:38;;;;;;;11.38;3.08;;;;;;;4.98;100.00;100953.84;5280134;28;20031;-68
2022/04/09 06:35:10;;;;;;;19.20;4.75;;;;;;;5.15;100.00;100956.25;5299297;28;20019;-67
2022/04/09 06:37:41;;;;;;;13.45;2.85;;;;;;;5.30;100.00;100963.13;5300782;28;20028;-67
2022/04/09 06:40:13;;;;;;;16.02;2.80;;;;;;;5.36;100.00;100965.34;5303934;28;20085;-68
2022/04/09 06:42:44;;;;;;;12.77;2.55;;;;;;;5.48;100.00;100963.75;5298628;28;20024;-67
2022/04/09 06:45:15;;;;;;;11.75;2.42;;;;;;;5.67;100.00;100962.63;5299017;28;20307;-67
2022/04/09 06:47:47;;;;;;;12.88;2.53;;;;;;;5.93;100.00;100971.41;5301725;28;20054;-68
2022/04/09 06:50:18;;;;;;;10.02;2.28;;;;;;;6.18;100.00;100968.09;5299061;28;20111;-67
2022/04/09 06:52:49;;;;;;;13.25;2.88;;;;;;;6.31;100.00;100972.41;5298597;28;20138;-68
2022/04/09 06:55:21;;;;;;;10.98;2.58;;;;;;;6.52;100.00;100975.38;5301250;28;20020;-67
2022/04/09 06:57:59;;;;;;;14.27;3.03;;;;;;;6.62;100.00;100977.34;5300218;28;20058;-68
2022/04/09 07:00:33;;;;;;;10.43;2.25;;;;;;;6.56;100.00;100976.84;5298643;28;20033;-68
2022/04/09 07:03:05;;;;;;;11.95;2.75;;;;;;;6.46;100.00;100985.34;5294537;28;20028;-68
2022/04/09 07:05:36;;;;;;;9.40;2.42;;;;;;;6.40;100.00;100981.34;5285289;28;20035;-67
2022/04/09 07:08:08;;;;;;;9.00;2.63;;;;;;;6.41;100.00;100988.25;5287110;28;20067;-66
2022/04/09 07:10:39;;;;;;;14.52;3.05;;;;;;;6.41;100.00;100996.06;5298982;28;20027;-66
2022/04/09 07:13:10;;;;;;;15.32;3.30;;;;;;;6.37;100.00;101006.78;5300855;28;20143;-68
2022/04/09 07:15:42;;;;;;;9.50;2.75;;;;;;;6.36;100.00;100998.09;5298711;28;20058;-68
2022/04/09 07:18:13;;;;;;;16.15;3.13;;;;;;;6.40;100.00;101002.19;5297605;28;20615;-67
2022/04/09 07:20:45;;;;;;;11.63;3.22;;;;;;;6.49;100.00;101016.38;5302513;28;20036;-67
2022/04/09 07:23:16;;;;;;;10.75;3.03;;;;;;;6.42;100.00;101015.13;5298747;28;20023;-68
2022/04/09 07:25:47;;;;;;;10.38;2.63;;;;;;;6.52;100.00;101013.59;5301740;28;20032;-66
2022/04/09 07:28:19;;;;;;;11.32;2.72;;;;;;;6.64;100.00;101012.78;5303589;28;20024;-68
2022/04/09 07:30:50;;;;;;;20.83;3.60;;;;;;;6.79;100.00;101021.34;5298431;28;20032;-68
2022/04/09 07:33:22;;;;;;;14.57;3.53;;;;;;;6.79;100.00;101023.97;5302523;28;20028;-67
2022/04/09 07:35:53;;;;;;;9.88;3.10;;;;;;;6.99;100.00;101025.22;5302799;28;20128;-68
2022/04/09 07:38:24;;;;;;;14.48;3.17;;;;;;;7.09;100.00;101025.47;5299097;28;20042;-68
2022/04/09 07:40:56;;;;;;;10.80;2.50;;;;;;;7.34;100.00;101030.66;5298418;28;20161;-68
2022/04/09 07:43:27;;;;;;;9.48;2.75;;;;;;;7.41;100.00;101026.69;5303018;28;20024;-66
2022/04/09 07:45:58;;;;;;;12.73;3.47;;;;;;;7.55;100.00;101034.41;5301704;28;20066;-67
2022/04/09 07:48:29;;;;;;;11.40;3.40;;;;;;;7.64;100.00;101034.72;5300307;28;20036;-68
2022/04/09 07:51:01;;;;;;;11.18;2.75;;;;;;;7.77;100.00;101033.75;5295109;28;20024;-66
2022/04/09 07:53:32;;;;;;;13.07;3.08;;;;;;;7.94;100.00;101035.16;5294936;28;20259;-68
2022/04/09 07:56:04;;;;;;;10.55;2.60;;;;;;;8.05;100.00;101032.63;5299505;28;20488;-67
2022/04/09 07:58:35;;;;;;;16.33;3.05;;;;;;;8.18;100.00;101032.59;5297680;28;20093;-68
2022/04/09 08:01:06;;;;;;;13.95;3.22;;;;;;;8.26;100.00;101039.88;5300562;28;20415;-66
2022/04/09 08:03:38;;;;;;;12.85;3.15;;;;;;;8.37;100.00;101053.03;5303140;28;20067;-68
2022/04/09 08:06:09;;;;;;;12.35;3.10;;;;;;;8.57;100.00;101048.13;5300831;28;20080;-67
2022/04/09 08:08:40;;;;;;;17.63;3.60;;;;;;;8.68;100.00;101043.78;5299455;28;20027;-68
2022/04/09 08:11:11;;;;;;;15.10;2.60;;;;;;;8.69;97.60;101052.44;5301174;28;20050;-67
2022/04/09 08:13:43;;;;;;;11.27;2.92;;;;;;;8.83;97.71;101048.84;5300692;28;20015;-69
2022/04/09 08:16:14;;;;;;;12.20;3.05;;;;;;;9.04;97.35;101049.81;5298000;28;20023;-69
2022/04/09 08:18:45;;;;;;;14.45;2.90;;;;;;;9.12;93.92;101041.41;5301492;28;20024;-67
2022/04/09 08:21:18;;;;;;;11.00;3.08;;;;;;;9.29;93.86;101042.75;5300667;28;20190;-69
2022/04/09 08:23:49;;;;;;;8.63;2.25;;;;;;;9.41;92.66;101047.03;5292308;28;20039;-68
2022/04/09 08:26:20;;;;;;;8.77;2.42;;;;;;;9.45;90.94;101051.91;5296888;28;20024;-69
2022/04/09 08:28:51;;;;;;;11.10;2.53;;;;;;;9.50;86.53;101057.63;5299305;28;20488;-70
2022/04/09 08:31:23;;;;;;;8.20;2.38;;;;;;;9.64;83.75;101059.19;5296560;28;20031;-68
2022/04/09 08:33:54;;;;;;;8.90;2.03;;;;;;;9.61;83.32;101054.19;5298262;28;20491;-70
2022/04/09 08:36:26;;;;;;;10.13;2.80;;;;;;;9.77;85.67;101066.91;5297504;28;20072;-70
2022/04/09 08:38:58;;;;;;;9.70;1.77;;;;;;;9.95;79.52;101067.25;5295153;28;20035;-70
2022/04/09 08:41:30;;;;;;;11.30;2.88;;;;;;;10.09;81.27;101071.41;5297351;28;20488;-69
2022/04/09 08:44:01;;;;;;;10.30;2.58;;;;;;;10.21;82.08;101067.81;5294822;28;20286;-68
2022/04/09 08:46:36;;;;;;;7.97;2.20;;;;;;;10.24;80.58;101075.44;5289723;28;20114;-69
2022/04/09 08:49:08;;;;;;;11.40;3.28;;;;;;;10.37;83.42;101080.53;5295395;28;20089;-71
2022/04/09 08:51:39;;;;;;;9.18;2.35;;;;;;;10.32;82.24;101080.09;5298444;28;20186;-70
2022/04/09 08:54:12;;;;;;;8.35;1.98;;;;;;;10.42;80.23;101094.13;5302449;28;20054;-70
2022/04/09 08:56:44;;;;;;;9.43;2.75;;;;;;;10.68;77.50;101089.38;5293941;28;20024;-70
2022/04/09 08:59:17;;;;;;;10.20;2.33;;;;;;;10.37;72.57;101091.84;5294109;28;20028;-70
2022/04/09 09:01:48;;;;;;;8.25;2.13;;;;;;;10.24;74.78;101096.38;5299285;28;20030;-70
2022/04/09 09:04:19;;;;;;;10.65;1.98;;;;;;;10.23;74.51;101100.78;5296428;28;20032;-69
2022/04/09 09:06:51;;;;;;;5.75;1.50;;;;;;;10.17;74.67;101097.81;5297455;28;20027;-70
2022/04/09 09:09:31;;;;;;;7.15;2.08;;;;;;;10.30;73.53;101113.41;5293945;28;20035;-68
2022/04/09 09:12:06;;;;;;;7.55;1.67;;;;;;;10.31;73.84;101104.63;5300700;28;20036;-69
2022/04/09 09:14:44;;;;;;;9.50;1.50;;;;;;;10.51;73.64;101103.00;5299705;28;20036;-69
2022/04/09 09:17:26;;;;;;;7.18;1.83;;;;;;;10.68;72.96;101118.19;5293788;28;20035;-70
2022/04/09 09:19:58;;;;;;;6.07;1.50;;;;;;;10.56;68.60;101106.91;5302122;28;20066;-70
2022/04/09 09:22:40;;;;;;;5.80;1.65;;;;;;;10.81;69.95;101111.00;5297810;28;20039;-70
2022/04/09 09:25:12;;;;;;;6.63;1.67;;;;;;;10.88;71.46;101108.72;5293080;28;20120;-70
2022/04/09 09:27:44;;;;;;;7.68;2.10;;;;;;;10.91;71.45;101116.31;5294038;28;20032;-70
2022/04/09 09:30:15;;;;;;;3.83;1.20;;;;;;;10.92;66.53;101121.44;5295963;28;20070;-68
2022/04/09 09:33:05;;;;;;;4.60;1.38;;;;;;;11.00;71.32;101122.63;5293683;28;20027;-70
2022/04/09 09:35:51;;;;;;;2.90;0.93;;;;;;;10.70;73.77;101129.41;5291046;28;20043;-69
2022/04/09 09:38:27;;;;;;;2.92;1.00;;;;;;;10.25;74.39;101139.97;5297842;28;20042;-69
2022/04/09 09:41:01;;;;;;;3.92;1.13;;;;;;;9.95;76.31;101132.69;5294205;28;20050;-69
2022/04/09 09:43:32;;;;;;;4.20;1.17;;;;;;;9.87;76.64;101130.66;5294574;28;20032;-68
2022/04/09 09:46:03;;;;;;;4.72;1.20;;;;;;;9.98;74.27;101137.69;5296662;28;20032;-70
2022/04/09 09:48:35;;;;;;;3.28;1.33;;;;;;;10.09;72.49;101140.31;5294072;28;20016;-70
2022/04/09 09:51:06;;;;;;;5.53;1.25;;;;;;;10.34;73.16;101131.41;5298776;28;20027;-70
2022/04/09 09:53:37;;;;;;;5.28;2.00;;;;;;;10.24;69.26;101130.41;5300234;28;20016;-68
2022/04/09 09:56:09;;;;;;;4.38;1.38;;;;;;;10.30;68.01;101132.56;5293731;28;20024;-70
2022/04/09 09:58:41;;;;;;;4.43;1.30;;;;;;;10.09;64.84;101129.00;5294824;28;20063;-70
2022/04/09 10:01:14;;;;;;;3.33;1.03;;;;;;;10.16;65.73;101135.44;5300153;28;20023;-70
2022/04/09 10:03:47;;;;;;;5.97;1.42;;;;;;;10.18;66.89;101134.34;5292532;28;20016;-70
2022/04/09 10:06:20;;;;;;;4.68;1.35;;;;;;;10.18;64.06;101143.97;5300354;28;20034;-68
2022/04/09 10:08:51;;;;;;;3.90;0.98;;;;;;;10.20;63.58;101147.31;5298657;28;20481;-70
2022/04/09 10:11:24;;;;;;;5.03;1.00;;;;;;;10.16;61.11;101144.09;5302204;28;20035;-70
2022/04/09 10:13:56;;;;;;;3.67;1.08;;;;;;;10.15;61.69;101134.59;5295607;28;20035;-69
2022/04/09 10:16:30;;;;;;;5.07;1.25;;;;;;;10.12;60.24;101136.63;5299688;28;20179;-70
2022/04/09 10:19:04;;;;;;;7.32;1.10;;;;;;;10.33;61.31;101150.66;5295625;28;20509;-70
2022/04/09 10:21:39;;;;;;;2.72;0.90;;;;;;;10.45;61.96;101143.63;5303454;28;20425;-70
2022/04/09 10:24:16;;;;;;;5.72;1.40;;;;;;;10.37;60.78;101149.47;5303148;28;20913;-69
2022/04/09 10:26:47;;;;;;;3.75;1.02;;;;;;;10.24;61.07;101156.59;5302639;28;20139;-70
2022/04/09 10:29:18;;;;;;;5.40;1.15;;;;;;;10.16;61.22;101156.38;5300579;28;20011;-70
2022/04/09 10:31:54;;;;;;;4.30;1.30;;;;;;;10.04;58.43;101158.16;5299096;27;20031;-70
2022/04/09 10:34:25;;;;;;;3.38;1.38;;;;;;;10.10;55.39;101147.19;5290664;28;20027;-70
2022/04/09 10:36:57;;;;;;;5.22;0.95;;;;;;;10.17;52.40;101163.25;5303765;28;20331;-70
2022/04/09 10:39:45;;;;;;;4.50;1.00;;;;;;;10.25;51.93;101171.38;5301010;28;20561;-70
2022/04/09 10:42:49;;;;;;;3.97;0.95;;;;;;;10.35;52.48;101166.28;5294576;28;20073;-70
2022/04/09 10:45:21;;;;;;;3.78;0.95;;;;;;;10.07;51.41;101172.78;5243837;28;20104;-70
2022/04/09 10:48:11;;;;;;;5.47;1.48;;;;;;;10.23;53.70;101163.63;5300946;28;20488;-70
2022/04/09 10:50:57;;;;;;;6.35;1.08;;;;;;;10.26;53.29;101162.56;5302458;28;20024;-69
2022/04/09 10:53:31;;;;;;;2.45;0.70;;;;;;;10.33;44.15;101168.16;5299916;28;20019;-69
2022/04/09 10:56:31;;;;;;;3.63;0.80;;;;;;;10.68;45.08;101168.84;5296557;28;20444;-70
2022/04/09 10:59:13;;;;;;;3.58;1.15;;;;;;;10.78;45.73;101168.91;5299569;28;20016;-68
2022/04/09 11:01:48;;;;;;;4.35;1.20;;;;;;;11.02;46.67;101157.38;5296700;28;20051;-69
2022/04/09 11:04:34;;;;;;;2.53;0.80;;;;;;;11.30;45.82;101162.03;5302026;28;20062;-70
2022/04/09 11:07:20;;;;;;;2.78;0.77;;;;;;;11.27;43.01;101177.19;5295571;28;20067;-70
2022/04/09 11:10:03;;;;;;;1.95;0.60;;;;;;;11.44;44.08;101164.38;5288076;28;20042;-69
2022/04/09 11:12:38;;;;;;;3.03;0.70;;;;;;;11.43;40.50;101156.59;5297785;28;20028;-70
2022/04/09 11:15:11;;;;;;;2.58;0.70;;;;;;;11.44;39.02;101159.13;5299079;28;20161;-70
2022/04/09 11:17:47;;;;;;;1.38;0.40;;;;;;;11.47;38.65;101165.03;5300658;28;20028;-70
2022/04/09 11:20:23;;;;;;;3.13;0.65;;;;;;;11.32;40.21;101157.47;5287610;28;20040;-71
2022/04/09 11:22:56;;;;;;;3.10;0.80;;;;;;;11.38;39.79;101175.34;5301109;28;20115;-70
2022/04/09 11:25:30;;;;;;;3.83;0.80;;;;;;;11.15;38.92;101181.66;5293809;28;20092;-69
2022/04/09 11:28:07;;;;;;;2.92;0.90;;;;;;;10.95;39.03;101170.19;5297594;28;20032;-70
2022/04/09 11:30:49;;;;;;;3.40;0.90;;;;;;;11.16;39.97;101178.91;5295523;28;20353;-70
2022/04/09 11:33:22;;;;;;;3.47;0.80;;;;;;;11.47;39.33;101167.66;5302568;28;20102;-70
2022/04/09 11:35:54;;;;;;;3.58;1.00;;;;;;;11.67;38.04;101169.47;5298312;28;20051;-69
2022/04/09 11:38:26;;;;;;;3.75;0.98;;;;;;;11.82;38.28;101172.56;5287217;28;20090;-70
2022/04/09 11:40:58;;;;;;;5.50;0.80;;;;;;;12.04;38.80;101171.63;5300336;28;20024;-69
2022/04/09 11:43:29;;;;;;;2.35;0.73;;;;;;;12.08;38.39;101179.09;5298111;28;20781;-70
2022/04/09 11:46:04;;;;;;;2.15;0.63;;;;;;;12.27;40.34;101183.59;5295079;28;20416;-70